INDIA METEOROLOGICAL DEPARTMENT, R.M.C. NEW DELHI
Dated:26 - 7 - 2017
METARS


Ahmedabad  
VAAH 261800Z 28007KT 1900 -RA SCT012 SCT018 OVC070 26/25 Q1002 NOSIG=
Amritsar   
VIAR 261800Z 11004KT 5000 BR FEW035 30/30 Q1001 NOSIG=
Aurangabad 
VAAU 261800Z 25005KT 6000 SCT020 SCT025 24/22 Q1007 NOSIG=
Bangalore  
VOBL 261800Z 27008KT 6000 SCT010 SCT080 23/21 Q1013 NOSIG=
Bhopal     
VABP 261800Z 25010KT 6000 SCT010 SCT020 BKN100 23/22 Q1004 NOSIG=
Bhubaneswar
VEBS 261800Z 31008KT 4000 HZ SCT018 FEW030CB BKN100 29/28 Q1003 NOSIG=
Chennai    
VOMM 261800Z 22005KT 4000 -TSRA SCT018 FEW025CB OVC080 27/25 Q1007 TEMPO 3000 -TSRA=
Coimbatore 
VOCB 261800Z 20008KT 6000 FEW015 SCT080 25/22 Q1010 NOSIG=
Colombo    
VCBI 261810Z 23008KT 9999 SCT018 29/24 Q1009 NOSIG=
Delhi      
VIDP 261800Z 12004KT 3500 BR FEW040 SCT100 30/26 Q1002 NOSIG=
Gauhati    
VEGT 261800Z NIL=
Gaya       
VEGY 261800Z 11011KT 3000 BR FEW010 SCT016 BKN100 27/24 Q1000 =
Hyderabad  
VOHS 261800Z 26003KT 5000 HZ SCT020 SCT100 25/22 Q1009 NOSIG=
Indore     
VAID 261800Z 25011KT 4000 -DZ SCT008 SCT020 BKN100 22/21 Q1005 NOSIG=
Jaipur     
VIJP 261800Z 08003KT 3000 HZ SCT030 SCT100 29/25 Q1003 NOSIG=
Kochi      
VOCI 261800Z 00000KT 4000 HZ FEW015 27/23 Q1010 NOSIG=
Kolkata    
VECC 261800Z 19004KT 2800 HZ SCT018 BKN090 28/26 Q1003 NOSIG=
Kozhikode  
VOCL 261830Z 00000KT 6000 FEW012 26/24 Q1009 NOSIG=
Lucknow    
VILK 261730Z 11005KT 3500 HZ SCT020 SCT100 30/26 Q1000=
Madurai    
VOMD 261800Z 32004KT 6000 FEW020 30/22 Q1008 NOSIG=
Mumbai     
VABB 261800Z 22010KT 3000 HZ SCT018 SCT025 BKN100 28/25 Q1005 NOSIG=
Nagpur     
VANP 261800Z 26003KT 3000 HZ SCT020 BKN100 26/23 Q1004 NOSIG=
Patna      
VEPT 261800Z 09010KT 3500 HZ SCT015 BKN100 28/25 Q1000 NOSIG=
Raipur     
VERP 261800Z 25006KT 6000 SCT020 BKN080 25/23 Q1003 NOSIG=
Ranchi     
VERC 261800Z 18008KT 2000 -RA SCT010 SCT015 OVC080 23/22 Q1004 NOSIG=
Trichy     
VOTR 261800Z 27012G22KT 6000 FEW016 31/20 Q1006 NOSIG=
Trivandrum 
VOTV 261800Z 32007KT 4000 HZ FEW015 28/24 Q1009 NOSIG=
Varanasi   
VEBN 261730Z 11014KT 5000 HZ SCT020 FEW030CB BKN100 26/25 Q0997 NOSIG=
Vizag      
VOVZ 261800Z 25010KT 6000 FEW018 SCT220 29/25 Q1001 NOSIG =
Male       
VRMM 261800Z 28005KT 9999 FEW018TCU BKN280 29/26 Q1011 NOSIG=
Gan        
SPECI VRMG 261752Z 18004KT 9999 TS FEW018 FEW019CB BKN260 29/26 Q1011 CB S TEMPO 5000 –TSRA=
Kathmandu  
VNKT 261820Z 00000KT 7000 FEW010 21/20 Q1011 NOSIG=
Dhaka      
VGHS 261800Z 00000KT 3500 HZ SCT015 BKN100 27/25 Q1003 NOSIG=
Colombo    
VCBI 261810Z 23008KT 9999 SCT018 29/24 Q1009 NOSIG=
Karachi    
OPKC 261755Z NIL=
Lahore     
OPLA 261755Z 13005KT 4000 FU FEW100 31/25 Q1001 A29.55 NOSIG=
Agra       
VIAG 261630Z 14005KT 6000 -TSRA FEW015 SCT020 FEW030TCU BKN080 27/27 Q1000 NOSIG=
Gwalior    
VIGR 261800Z 00000KT 4000 HZ FEW030CB SCT100 29/26 Q1000=
Pune       
VAPO 261730Z 25007KT 6000 FEW020 SCT100 23/20 Q1009 NOSIG=